sensor_id;sensor_type;location;lat;lon;timestamp;P1;durP1;ratioP1;P2;durP2;ratioP2
47413;SDS011;33163;0.000;0.000;2023-02-13T00:00:06;8.60;;;6.20;;
47413;SDS011;33163;0.000;0.000;2023-02-13T00:02:35;10.27;;;7.22;;
47413;SDS011;33163;0.000;0.000;2023-02-13T00:05:01;9.80;;;6.75;;
47413;SDS011;33163;0.000;0.000;2023-02-13T00:07:30;8.05;;;5.85;;
47413;SDS011;33163;0.000;0.000;2023-02-13T00:09:58;9.38;;;6.40;;
47413;SDS011;33163;0.000;0.000;2023-02-13T00:12:25;8.77;;;6.63;;
47413;SDS011;33163;0.000;0.000;2023-02-13T00:14:51;7.78;;;6.70;;
47413;SDS011;33163;0.000;0.000;2023-02-13T00:17:18;9.48;;;6.72;;
47413;SDS011;33163;0.000;0.000;2023-02-13T00:19:45;8.43;;;6.80;;
47413;SDS011;33163;0.000;0.000;2023-02-13T00:22:12;8.52;;;7.05;;
47413;SDS011;33163;0.000;0.000;2023-02-13T00:24:40;8.52;;;6.78;;
47413;SDS011;33163;0.000;0.000;2023-02-13T00:27:08;8.90;;;7.18;;
47413;SDS011;33163;0.000;0.000;2023-02-13T00:29:35;8.40;;;6.75;;
47413;SDS011;33163;0.000;0.000;2023-02-13T00:32:02;8.85;;;7.25;;
47413;SDS011;33163;0.000;0.000;2023-02-13T00:34:29;9.02;;;6.95;;
47413;SDS011;33163;0.000;0.000;2023-02-13T00:36:56;8.07;;;6.43;;
47413;SDS011;33163;0.000;0.000;2023-02-13T00:39:22;8.25;;;7.18;;
47413;SDS011;33163;0.000;0.000;2023-02-13T00:41:49;7.53;;;6.22;;
47413;SDS011;33163;0.000;0.000;2023-02-13T00:44:17;9.15;;;6.68;;
47413;SDS011;33163;0.000;0.000;2023-02-13T00:46:44;9.65;;;6.93;;
47413;SDS011;33163;0.000;0.000;2023-02-13T00:49:11;7.93;;;6.65;;
47413;SDS011;33163;0.000;0.000;2023-02-13T00:51:37;9.65;;;6.43;;
47413;SDS011;33163;0.000;0.000;2023-02-13T00:54:04;8.20;;;6.63;;
47413;SDS011;33163;0.000;0.000;2023-02-13T00:56:31;7.95;;;6.53;;
47413;SDS011;33163;0.000;0.000;2023-02-13T00:58:58;9.00;;;7.20;;
47413;SDS011;33163;0.000;0.000;2023-02-13T01:01:26;9.15;;;6.65;;
47413;SDS011;33163;0.000;0.000;2023-02-13T01:03:53;8.93;;;6.60;;
47413;SDS011;33163;0.000;0.000;2023-02-13T01:06:19;9.55;;;6.72;;
47413;SDS011;33163;0.000;0.000;2023-02-13T01:08:46;8.45;;;6.88;;
47413;SDS011;33163;0.000;0.000;2023-02-13T01:11:13;10.98;;;6.82;;
47413;SDS011;33163;0.000;0.000;2023-02-13T01:13:40;7.97;;;6.80;;
47413;SDS011;33163;0.000;0.000;2023-02-13T01:16:07;6.88;;;6.03;;
47413;SDS011;33163;0.000;0.000;2023-02-13T01:18:35;8.35;;;6.30;;
47413;SDS011;33163;0.000;0.000;2023-02-13T01:21:02;8.60;;;6.57;;
47413;SDS011;33163;0.000;0.000;2023-02-13T01:23:31;7.03;;;6.28;;
47413;SDS011;33163;0.000;0.000;2023-02-13T01:25:59;8.63;;;6.90;;
47413;SDS011;33163;0.000;0.000;2023-02-13T01:28:28;7.43;;;6.15;;
47413;SDS011;33163;0.000;0.000;2023-02-13T01:30:56;8.77;;;7.47;;
47413;SDS011;33163;0.000;0.000;2023-02-13T01:33:24;7.80;;;6.32;;
47413;SDS011;33163;0.000;0.000;2023-02-13T01:35:53;9.60;;;7.55;;
47413;SDS011;33163;0.000;0.000;2023-02-13T01:38:20;10.38;;;6.97;;
47413;SDS011;33163;0.000;0.000;2023-02-13T01:40:48;8.98;;;6.93;;
47413;SDS011;33163;0.000;0.000;2023-02-13T01:43:17;11.77;;;7.55;;
47413;SDS011;33163;0.000;0.000;2023-02-13T01:45:47;8.45;;;6.82;;
47413;SDS011;33163;0.000;0.000;2023-02-13T01:48:17;8.75;;;6.70;;
47413;SDS011;33163;0.000;0.000;2023-02-13T01:50:47;8.63;;;6.57;;
47413;SDS011;33163;0.000;0.000;2023-02-13T01:53:18;6.95;;;6.20;;
47413;SDS011;33163;0.000;0.000;2023-02-13T01:55:51;8.47;;;6.70;;
47413;SDS011;33163;0.000;0.000;2023-02-13T01:58:24;9.68;;;6.82;;
47413;SDS011;33163;0.000;0.000;2023-02-13T02:00:52;9.48;;;6.88;;
47413;SDS011;33163;0.000;0.000;2023-02-13T02:03:20;8.98;;;7.40;;
47413;SDS011;33163;0.000;0.000;2023-02-13T02:05:50;8.65;;;6.75;;
47413;SDS011;33163;0.000;0.000;2023-02-13T02:08:19;9.27;;;6.75;;
47413;SDS011;33163;0.000;0.000;2023-02-13T02:10:46;8.18;;;6.72;;
47413;SDS011;33163;0.000;0.000;2023-02-13T02:13:13;8.70;;;7.20;;
47413;SDS011;33163;0.000;0.000;2023-02-13T02:15:42;9.30;;;7.28;;
47413;SDS011;33163;0.000;0.000;2023-02-13T02:18:12;9.45;;;7.15;;
47413;SDS011;33163;0.000;0.000;2023-02-13T02:20:46;8.73;;;6.85;;
47413;SDS011;33163;0.000;0.000;2023-02-13T02:24:00;9.43;;;6.40;;
47413;SDS011;33163;0.000;0.000;2023-02-13T02:27:04;9.10;;;7.07;;
47413;SDS011;33163;0.000;0.000;2023-02-13T02:30:03;9.38;;;6.22;;
47413;SDS011;33163;0.000;0.000;2023-02-13T02:32:57;9.20;;;6.53;;
47413;SDS011;33163;0.000;0.000;2023-02-13T02:35:33;10.32;;;7.35;;
47413;SDS011;33163;0.000;0.000;2023-02-13T02:38:13;10.15;;;6.97;;
47413;SDS011;33163;0.000;0.000;2023-02-13T02:40:51;9.25;;;7.05;;
47413;SDS011;33163;0.000;0.000;2023-02-13T02:43:28;9.27;;;7.22;;
47413;SDS011;33163;0.000;0.000;2023-02-13T02:46:07;10.07;;;6.97;;
47413;SDS011;33163;0.000;0.000;2023-02-13T02:48:44;8.52;;;6.72;;
47413;SDS011;33163;0.000;0.000;2023-02-13T02:51:37;10.45;;;7.38;;
47413;SDS011;33163;0.000;0.000;2023-02-13T02:54:10;9.20;;;7.20;;
47413;SDS011;33163;0.000;0.000;2023-02-13T02:57:00;10.85;;;6.75;;
47413;SDS011;33163;0.000;0.000;2023-02-13T02:59:32;9.65;;;6.85;;
47413;SDS011;33163;0.000;0.000;2023-02-13T03:02:19;10.10;;;7.25;;
47413;SDS011;33163;0.000;0.000;2023-02-13T03:05:08;10.70;;;6.75;;
47413;SDS011;33163;0.000;0.000;2023-02-13T03:08:00;10.77;;;7.55;;
47413;SDS011;33163;0.000;0.000;2023-02-13T03:10:30;8.80;;;6.68;;
47413;SDS011;33163;0.000;0.000;2023-02-13T03:13:17;9.10;;;6.78;;
47413;SDS011;33163;0.000;0.000;2023-02-13T03:15:58;9.10;;;6.80;;
47413;SDS011;33163;0.000;0.000;2023-02-13T03:18:49;8.60;;;6.78;;
47413;SDS011;33163;0.000;0.000;2023-02-13T03:21:40;8.52;;;6.20;;
47413;SDS011;33163;0.000;0.000;2023-02-13T03:24:32;8.82;;;7.15;;
47413;SDS011;33163;0.000;0.000;2023-02-13T03:27:07;9.57;;;7.20;;
47413;SDS011;33163;0.000;0.000;2023-02-13T03:29:40;10.35;;;7.57;;
47413;SDS011;33163;0.000;0.000;2023-02-13T03:32:35;8.73;;;6.50;;
47413;SDS011;33163;0.000;0.000;2023-02-13T03:35:11;9.07;;;6.82;;
47413;SDS011;33163;0.000;0.000;2023-02-13T03:38:07;8.80;;;6.20;;
47413;SDS011;33163;0.000;0.000;2023-02-13T03:40:41;10.38;;;6.93;;
47413;SDS011;33163;0.000;0.000;2023-02-13T03:43:34;8.23;;;6.78;;
47413;SDS011;33163;0.000;0.000;2023-02-13T03:46:07;12.18;;;7.70;;
47413;SDS011;33163;0.000;0.000;2023-02-13T03:48:36;11.38;;;7.15;;
47413;SDS011;33163;0.000;0.000;2023-02-13T03:51:23;9.10;;;6.72;;
47413;SDS011;33163;0.000;0.000;2023-02-13T03:53:55;9.38;;;6.68;;
47413;SDS011;33163;0.000;0.000;2023-02-13T03:56:25;8.70;;;7.15;;
47413;SDS011;33163;0.000;0.000;2023-02-13T03:59:15;8.20;;;6.32;;
47413;SDS011;33163;0.000;0.000;2023-02-13T04:04:37;10.57;;;7.43;;
47413;SDS011;33163;0.000;0.000;2023-02-13T04:07:09;10.55;;;6.88;;
47413;SDS011;33163;0.000;0.000;2023-02-13T04:09:54;9.75;;;6.88;;
47413;SDS011;33163;0.000;0.000;2023-02-13T04:12:24;8.82;;;7.35;;
47413;SDS011;33163;0.000;0.000;2023-02-13T04:15:01;8.93;;;6.35;;
47413;SDS011;33163;0.000;0.000;2023-02-13T04:17:32;10.82;;;7.00;;
47413;SDS011;33163;0.000;0.000;2023-02-13T04:20:04;8.98;;;6.63;;
47413;SDS011;33163;0.000;0.000;2023-02-13T04:22:33;9.27;;;7.15;;
47413;SDS011;33163;0.000;0.000;2023-02-13T04:25:01;9.32;;;6.60;;
47413;SDS011;33163;0.000;0.000;2023-02-13T04:27:27;9.00;;;6.97;;
47413;SDS011;33163;0.000;0.000;2023-02-13T04:29:54;9.63;;;7.18;;
47413;SDS011;33163;0.000;0.000;2023-02-13T04:32:21;9.23;;;7.10;;
47413;SDS011;33163;0.000;0.000;2023-02-13T04:34:48;10.27;;;7.00;;
47413;SDS011;33163;0.000;0.000;2023-02-13T04:37:14;12.52;;;7.25;;
47413;SDS011;33163;0.000;0.000;2023-02-13T04:39:41;9.73;;;7.47;;
47413;SDS011;33163;0.000;0.000;2023-02-13T04:42:09;9.55;;;6.78;;
47413;SDS011;33163;0.000;0.000;2023-02-13T04:44:36;8.43;;;6.28;;
47413;SDS011;33163;0.000;0.000;2023-02-13T04:47:02;8.82;;;6.65;;
47413;SDS011;33163;0.000;0.000;2023-02-13T04:49:32;8.13;;;5.90;;
47413;SDS011;33163;0.000;0.000;2023-02-13T04:51:59;9.57;;;6.97;;
47413;SDS011;33163;0.000;0.000;2023-02-13T04:54:26;8.93;;;7.00;;
47413;SDS011;33163;0.000;0.000;2023-02-13T04:56:52;8.93;;;7.10;;
47413;SDS011;33163;0.000;0.000;2023-02-13T04:59:20;8.10;;;6.63;;
47413;SDS011;33163;0.000;0.000;2023-02-13T05:01:47;8.27;;;6.10;;
47413;SDS011;33163;0.000;0.000;2023-02-13T05:04:14;8.85;;;6.45;;
47413;SDS011;33163;0.000;0.000;2023-02-13T05:06:41;9.27;;;6.25;;
47413;SDS011;33163;0.000;0.000;2023-02-13T05:09:08;10.13;;;6.82;;
47413;SDS011;33163;0.000;0.000;2023-02-13T05:11:35;8.35;;;6.93;;
47413;SDS011;33163;0.000;0.000;2023-02-13T05:14:02;8.52;;;6.57;;
47413;SDS011;33163;0.000;0.000;2023-02-13T05:16:30;8.10;;;6.55;;
47413;SDS011;33163;0.000;0.000;2023-02-13T05:18:57;8.88;;;6.40;;
47413;SDS011;33163;0.000;0.000;2023-02-13T05:21:24;8.82;;;6.40;;
47413;SDS011;33163;0.000;0.000;2023-02-13T05:24:08;7.75;;;6.25;;
47413;SDS011;33163;0.000;0.000;2023-02-13T05:26:35;9.02;;;6.28;;
47413;SDS011;33163;0.000;0.000;2023-02-13T05:29:02;7.80;;;6.47;;
47413;SDS011;33163;0.000;0.000;2023-02-13T05:31:45;8.65;;;6.13;;
47413;SDS011;33163;0.000;0.000;2023-02-13T05:34:12;8.20;;;6.57;;
47413;SDS011;33163;0.000;0.000;2023-02-13T05:36:38;8.40;;;6.63;;
47413;SDS011;33163;0.000;0.000;2023-02-13T05:39:05;8.40;;;6.30;;
47413;SDS011;33163;0.000;0.000;2023-02-13T05:41:32;8.98;;;6.13;;
47413;SDS011;33163;0.000;0.000;2023-02-13T05:43:59;9.27;;;6.70;;
47413;SDS011;33163;0.000;0.000;2023-02-13T05:46:26;12.52;;;6.45;;
47413;SDS011;33163;0.000;0.000;2023-02-13T05:48:54;7.10;;;6.40;;
47413;SDS011;33163;0.000;0.000;2023-02-13T05:51:21;7.75;;;5.82;;
47413;SDS011;33163;0.000;0.000;2023-02-13T05:53:47;8.50;;;6.22;;
47413;SDS011;33163;0.000;0.000;2023-02-13T05:56:14;9.25;;;6.68;;
47413;SDS011;33163;0.000;0.000;2023-02-13T05:58:41;7.97;;;6.35;;
47413;SDS011;33163;0.000;0.000;2023-02-13T06:01:09;6.70;;;5.75;;
47413;SDS011;33163;0.000;0.000;2023-02-13T06:03:36;9.57;;;6.00;;
47413;SDS011;33163;0.000;0.000;2023-02-13T06:06:05;8.57;;;6.30;;
47413;SDS011;33163;0.000;0.000;2023-02-13T06:08:32;8.27;;;6.18;;
47413;SDS011;33163;0.000;0.000;2023-02-13T06:10:59;8.18;;;5.60;;
47413;SDS011;33163;0.000;0.000;2023-02-13T06:13:26;8.40;;;6.10;;
47413;SDS011;33163;0.000;0.000;2023-02-13T06:15:53;6.45;;;5.50;;
47413;SDS011;33163;0.000;0.000;2023-02-13T06:18:20;7.85;;;5.88;;
47413;SDS011;33163;0.000;0.000;2023-02-13T06:20:46;7.32;;;5.63;;
47413;SDS011;33163;0.000;0.000;2023-02-13T06:23:15;10.20;;;6.38;;
47413;SDS011;33163;0.000;0.000;2023-02-13T06:25:41;7.88;;;5.68;;
47413;SDS011;33163;0.000;0.000;2023-02-13T06:28:08;8.40;;;6.05;;
47413;SDS011;33163;0.000;0.000;2023-02-13T06:30:35;7.40;;;5.43;;
47413;SDS011;33163;0.000;0.000;2023-02-13T06:33:02;10.68;;;7.25;;
47413;SDS011;33163;0.000;0.000;2023-02-13T06:35:29;8.45;;;6.07;;
47413;SDS011;33163;0.000;0.000;2023-02-13T06:37:55;11.20;;;6.68;;
47413;SDS011;33163;0.000;0.000;2023-02-13T06:40:23;9.77;;;6.22;;
47413;SDS011;33163;0.000;0.000;2023-02-13T06:42:50;7.07;;;5.50;;
47413;SDS011;33163;0.000;0.000;2023-02-13T06:45:17;9.90;;;5.40;;
47413;SDS011;33163;0.000;0.000;2023-02-13T06:47:45;8.88;;;6.03;;
47413;SDS011;33163;0.000;0.000;2023-02-13T06:50:13;10.48;;;6.18;;
47413;SDS011;33163;0.000;0.000;2023-02-13T06:52:44;9.70;;;6.60;;
47413;SDS011;33163;0.000;0.000;2023-02-13T06:55:12;9.43;;;6.22;;
47413;SDS011;33163;0.000;0.000;2023-02-13T06:57:40;9.55;;;6.70;;
47413;SDS011;33163;0.000;0.000;2023-02-13T07:00:07;13.73;;;7.25;;
47413;SDS011;33163;0.000;0.000;2023-02-13T07:02:37;11.00;;;5.95;;
47413;SDS011;33163;0.000;0.000;2023-02-13T07:05:04;14.40;;;8.00;;
47413;SDS011;33163;0.000;0.000;2023-02-13T07:07:32;10.40;;;7.30;;
47413;SDS011;33163;0.000;0.000;2023-02-13T07:09:59;13.30;;;7.50;;
47413;SDS011;33163;0.000;0.000;2023-02-13T07:12:26;12.15;;;7.55;;
47413;SDS011;33163;0.000;0.000;2023-02-13T07:14:54;9.57;;;6.43;;
47413;SDS011;33163;0.000;0.000;2023-02-13T07:17:21;11.75;;;8.00;;
47413;SDS011;33163;0.000;0.000;2023-02-13T07:19:48;11.98;;;8.23;;
47413;SDS011;33163;0.000;0.000;2023-02-13T07:22:14;12.02;;;7.57;;
47413;SDS011;33163;0.000;0.000;2023-02-13T07:24:41;10.80;;;7.40;;
47413;SDS011;33163;0.000;0.000;2023-02-13T07:27:08;11.88;;;8.25;;
47413;SDS011;33163;0.000;0.000;2023-02-13T07:29:35;11.02;;;7.72;;
47413;SDS011;33163;0.000;0.000;2023-02-13T07:32:03;14.38;;;7.57;;
47413;SDS011;33163;0.000;0.000;2023-02-13T07:34:31;11.30;;;7.35;;
47413;SDS011;33163;0.000;0.000;2023-02-13T07:36:57;14.23;;;7.53;;
47413;SDS011;33163;0.000;0.000;2023-02-13T07:39:24;9.25;;;6.93;;
47413;SDS011;33163;0.000;0.000;2023-02-13T07:41:51;10.23;;;6.90;;
47413;SDS011;33163;0.000;0.000;2023-02-13T07:44:18;10.65;;;6.57;;
47413;SDS011;33163;0.000;0.000;2023-02-13T07:46:44;11.23;;;6.95;;
47413;SDS011;33163;0.000;0.000;2023-02-13T07:49:12;12.23;;;7.13;;
47413;SDS011;33163;0.000;0.000;2023-02-13T07:51:39;9.98;;;6.50;;
47413;SDS011;33163;0.000;0.000;2023-02-13T07:54:06;9.55;;;6.85;;
47413;SDS011;33163;0.000;0.000;2023-02-13T07:56:33;9.98;;;6.80;;
47413;SDS011;33163;0.000;0.000;2023-02-13T07:58:59;9.38;;;6.85;;
47413;SDS011;33163;0.000;0.000;2023-02-13T08:01:26;11.73;;;7.43;;
47413;SDS011;33163;0.000;0.000;2023-02-13T08:03:53;8.88;;;6.88;;
47413;SDS011;33163;0.000;0.000;2023-02-13T08:06:21;9.02;;;6.45;;
47413;SDS011;33163;0.000;0.000;2023-02-13T08:08:48;9.85;;;6.88;;
47413;SDS011;33163;0.000;0.000;2023-02-13T08:11:35;8.00;;;5.95;;
47413;SDS011;33163;0.000;0.000;2023-02-13T08:14:28;11.07;;;6.85;;
47413;SDS011;33163;0.000;0.000;2023-02-13T08:16:57;10.70;;;6.75;;
47413;SDS011;33163;0.000;0.000;2023-02-13T08:19:25;10.45;;;6.28;;
47413;SDS011;33163;0.000;0.000;2023-02-13T08:21:53;12.27;;;6.90;;
47413;SDS011;33163;0.000;0.000;2023-02-13T08:24:20;13.35;;;6.97;;
47413;SDS011;33163;0.000;0.000;2023-02-13T08:26:47;11.70;;;6.78;;
47413;SDS011;33163;0.000;0.000;2023-02-13T08:29:13;9.65;;;6.80;;
47413;SDS011;33163;0.000;0.000;2023-02-13T08:31:40;11.88;;;6.50;;
47413;SDS011;33163;0.000;0.000;2023-02-13T08:34:07;11.60;;;6.40;;
47413;SDS011;33163;0.000;0.000;2023-02-13T08:36:34;8.40;;;6.63;;
47413;SDS011;33163;0.000;0.000;2023-02-13T08:39:02;9.32;;;5.93;;
47413;SDS011;33163;0.000;0.000;2023-02-13T08:41:29;10.27;;;7.18;;
47413;SDS011;33163;0.000;0.000;2023-02-13T08:43:59;8.07;;;6.30;;
47413;SDS011;33163;0.000;0.000;2023-02-13T08:46:26;9.55;;;6.63;;
47413;SDS011;33163;0.000;0.000;2023-02-13T08:48:53;9.88;;;7.00;;
47413;SDS011;33163;0.000;0.000;2023-02-13T08:51:20;9.52;;;6.82;;
47413;SDS011;33163;0.000;0.000;2023-02-13T08:53:47;9.50;;;6.50;;
47413;SDS011;33163;0.000;0.000;2023-02-13T08:56:15;10.07;;;6.47;;
47413;SDS011;33163;0.000;0.000;2023-02-13T08:58:42;10.77;;;7.00;;
47413;SDS011;33163;0.000;0.000;2023-02-13T09:01:09;12.45;;;7.57;;
47413;SDS011;33163;0.000;0.000;2023-02-13T09:03:36;12.80;;;7.10;;
47413;SDS011;33163;0.000;0.000;2023-02-13T09:06:06;11.20;;;7.32;;
47413;SDS011;33163;0.000;0.000;2023-02-13T09:08:33;11.05;;;7.28;;
47413;SDS011;33163;0.000;0.000;2023-02-13T09:11:00;9.43;;;7.25;;
47413;SDS011;33163;0.000;0.000;2023-02-13T09:13:31;13.25;;;7.18;;
47413;SDS011;33163;0.000;0.000;2023-02-13T09:15:58;10.63;;;7.03;;
47413;SDS011;33163;0.000;0.000;2023-02-13T09:18:26;11.48;;;8.38;;
47413;SDS011;33163;0.000;0.000;2023-02-13T09:20:56;9.07;;;6.85;;
47413;SDS011;33163;0.000;0.000;2023-02-13T09:23:24;10.52;;;6.60;;
47413;SDS011;33163;0.000;0.000;2023-02-13T09:25:51;8.00;;;6.25;;
47413;SDS011;33163;0.000;0.000;2023-02-13T09:28:18;10.63;;;7.45;;
47413;SDS011;33163;0.000;0.000;2023-02-13T09:30:46;9.48;;;7.15;;
47413;SDS011;33163;0.000;0.000;2023-02-13T09:33:14;9.15;;;7.07;;
47413;SDS011;33163;0.000;0.000;2023-02-13T09:35:40;10.70;;;7.43;;
47413;SDS011;33163;0.000;0.000;2023-02-13T09:38:08;12.43;;;7.88;;
47413;SDS011;33163;0.000;0.000;2023-02-13T09:40:36;10.80;;;6.68;;
47413;SDS011;33163;0.000;0.000;2023-02-13T09:43:10;9.40;;;7.10;;
47413;SDS011;33163;0.000;0.000;2023-02-13T09:45:41;10.38;;;6.95;;
47413;SDS011;33163;0.000;0.000;2023-02-13T09:48:12;8.95;;;6.75;;
47413;SDS011;33163;0.000;0.000;2023-02-13T09:50:43;9.75;;;6.70;;
47413;SDS011;33163;0.000;0.000;2023-02-13T09:53:10;8.90;;;6.88;;
47413;SDS011;33163;0.000;0.000;2023-02-13T09:55:46;9.20;;;5.97;;
47413;SDS011;33163;0.000;0.000;2023-02-13T09:58:21;10.45;;;6.40;;
47413;SDS011;33163;0.000;0.000;2023-02-13T10:00:58;11.15;;;6.85;;
47413;SDS011;33163;0.000;0.000;2023-02-13T10:03:29;9.60;;;5.93;;
47413;SDS011;33163;0.000;0.000;2023-02-13T10:06:03;7.63;;;5.72;;
47413;SDS011;33163;0.000;0.000;2023-02-13T10:08:37;9.02;;;6.55;;
47413;SDS011;33163;0.000;0.000;2023-02-13T10:11:21;8.93;;;5.80;;
47413;SDS011;33163;0.000;0.000;2023-02-13T10:13:58;8.95;;;6.40;;
47413;SDS011;33163;0.000;0.000;2023-02-13T10:16:35;8.80;;;6.40;;
47413;SDS011;33163;0.000;0.000;2023-02-13T10:19:09;9.65;;;6.68;;
47413;SDS011;33163;0.000;0.000;2023-02-13T10:21:44;10.65;;;6.22;;
47413;SDS011;33163;0.000;0.000;2023-02-13T10:24:18;9.18;;;6.15;;
47413;SDS011;33163;0.000;0.000;2023-02-13T10:26:53;9.80;;;6.03;;
47413;SDS011;33163;0.000;0.000;2023-02-13T10:29:28;6.47;;;5.50;;
47413;SDS011;33163;0.000;0.000;2023-02-13T10:32:21;7.90;;;5.53;;
47413;SDS011;33163;0.000;0.000;2023-02-13T10:34:56;9.73;;;5.80;;
47413;SDS011;33163;0.000;0.000;2023-02-13T10:37:26;8.90;;;5.65;;
47413;SDS011;33163;0.000;0.000;2023-02-13T10:39:54;8.55;;;6.30;;
47413;SDS011;33163;0.000;0.000;2023-02-13T10:42:22;9.32;;;5.80;;
47413;SDS011;33163;0.000;0.000;2023-02-13T10:45:05;8.50;;;6.30;;
47413;SDS011;33163;0.000;0.000;2023-02-13T10:47:46;7.80;;;5.68;;
47413;SDS011;33163;0.000;0.000;2023-02-13T10:50:23;7.47;;;5.63;;
47413;SDS011;33163;0.000;0.000;2023-02-13T10:52:58;9.23;;;6.30;;
47413;SDS011;33163;0.000;0.000;2023-02-13T10:55:43;8.13;;;5.85;;
47413;SDS011;33163;0.000;0.000;2023-02-13T10:58:24;10.55;;;6.65;;
47413;SDS011;33163;0.000;0.000;2023-02-13T11:01:02;9.88;;;6.30;;
47413;SDS011;33163;0.000;0.000;2023-02-13T11:03:34;11.10;;;6.45;;
47413;SDS011;33163;0.000;0.000;2023-02-13T11:06:04;8.70;;;6.05;;
47413;SDS011;33163;0.000;0.000;2023-02-13T11:08:34;11.10;;;6.30;;
47413;SDS011;33163;0.000;0.000;2023-02-13T11:11:04;10.82;;;6.57;;
47413;SDS011;33163;0.000;0.000;2023-02-13T11:14:06;10.50;;;6.50;;
47413;SDS011;33163;0.000;0.000;2023-02-13T11:19:15;9.65;;;6.43;;
47413;SDS011;33163;0.000;0.000;2023-02-13T11:21:46;9.35;;;6.32;;
47413;SDS011;33163;0.000;0.000;2023-02-13T11:24:18;8.50;;;6.07;;
47413;SDS011;33163;0.000;0.000;2023-02-13T11:26:49;8.95;;;6.13;;
47413;SDS011;33163;0.000;0.000;2023-02-13T11:29:20;10.50;;;6.35;;
47413;SDS011;33163;0.000;0.000;2023-02-13T11:31:59;7.75;;;6.00;;
47413;SDS011;33163;0.000;0.000;2023-02-13T11:34:42;8.77;;;5.80;;
47413;SDS011;33163;0.000;0.000;2023-02-13T11:37:15;8.57;;;6.25;;
47413;SDS011;33163;0.000;0.000;2023-02-13T11:39:44;7.35;;;6.30;;
47413;SDS011;33163;0.000;0.000;2023-02-13T11:42:13;9.35;;;6.38;;
47413;SDS011;33163;0.000;0.000;2023-02-13T11:44:41;6.88;;;5.75;;
47413;SDS011;33163;0.000;0.000;2023-02-13T11:47:14;14.52;;;7.72;;
47413;SDS011;33163;0.000;0.000;2023-02-13T11:49:43;12.70;;;8.10;;
47413;SDS011;33163;0.000;0.000;2023-02-13T11:52:21;10.73;;;7.20;;
47413;SDS011;33163;0.000;0.000;2023-02-13T11:54:53;11.55;;;7.90;;
47413;SDS011;33163;0.000;0.000;2023-02-13T11:57:28;12.23;;;7.75;;
47413;SDS011;33163;0.000;0.000;2023-02-13T11:59:56;11.00;;;7.20;;
47413;SDS011;33163;0.000;0.000;2023-02-13T12:02:24;12.68;;;7.65;;
47413;SDS011;33163;0.000;0.000;2023-02-13T12:07:44;11.70;;;7.22;;
47413;SDS011;33163;0.000;0.000;2023-02-13T12:10:15;12.15;;;7.78;;
47413;SDS011;33163;0.000;0.000;2023-02-13T12:12:49;12.00;;;6.97;;
47413;SDS011;33163;0.000;0.000;2023-02-13T12:15:20;15.70;;;7.20;;
47413;SDS011;33163;0.000;0.000;2023-02-13T12:17:51;9.85;;;7.05;;
47413;SDS011;33163;0.000;0.000;2023-02-13T12:20:33;11.38;;;6.65;;
47413;SDS011;33163;0.000;0.000;2023-02-13T12:23:14;12.77;;;7.13;;
47413;SDS011;33163;0.000;0.000;2023-02-13T12:25:56;9.05;;;6.93;;
47413;SDS011;33163;0.000;0.000;2023-02-13T12:28:36;11.00;;;6.78;;
47413;SDS011;33163;0.000;0.000;2023-02-13T12:31:23;12.30;;;6.18;;
47413;SDS011;33163;0.000;0.000;2023-02-13T12:34:08;9.50;;;6.28;;
47413;SDS011;33163;0.000;0.000;2023-02-13T12:36:57;11.60;;;5.85;;
47413;SDS011;33163;0.000;0.000;2023-02-13T12:39:38;7.90;;;5.50;;
47413;SDS011;33163;0.000;0.000;2023-02-13T12:42:18;8.63;;;6.00;;
47413;SDS011;33163;0.000;0.000;2023-02-13T12:45:00;10.93;;;5.57;;
47413;SDS011;33163;0.000;0.000;2023-02-13T12:47:39;8.85;;;5.70;;
47413;SDS011;33163;0.000;0.000;2023-02-13T12:50:16;7.47;;;6.00;;
47413;SDS011;33163;0.000;0.000;2023-02-13T12:53:03;9.93;;;6.03;;
47413;SDS011;33163;0.000;0.000;2023-02-13T12:55:44;11.52;;;5.75;;
47413;SDS011;33163;0.000;0.000;2023-02-13T12:58:26;10.05;;;5.70;;
47413;SDS011;33163;0.000;0.000;2023-02-13T13:01:08;7.65;;;5.13;;
47413;SDS011;33163;0.000;0.000;2023-02-13T13:03:45;7.93;;;5.07;;
47413;SDS011;33163;0.000;0.000;2023-02-13T13:06:28;6.55;;;5.10;;
47413;SDS011;33163;0.000;0.000;2023-02-13T13:09:13;7.63;;;5.05;;
47413;SDS011;33163;0.000;0.000;2023-02-13T13:11:59;8.43;;;5.50;;
47413;SDS011;33163;0.000;0.000;2023-02-13T13:14:43;12.77;;;5.05;;
47413;SDS011;33163;0.000;0.000;2023-02-13T13:17:20;6.55;;;4.97;;
47413;SDS011;33163;0.000;0.000;2023-02-13T13:19:55;8.15;;;5.75;;
47413;SDS011;33163;0.000;0.000;2023-02-13T13:22:30;12.18;;;5.40;;
47413;SDS011;33163;0.000;0.000;2023-02-13T13:25:03;9.20;;;5.32;;
47413;SDS011;33163;0.000;0.000;2023-02-13T13:27:42;6.03;;;4.75;;
47413;SDS011;33163;0.000;0.000;2023-02-13T13:30:12;8.73;;;5.45;;
47413;SDS011;33163;0.000;0.000;2023-02-13T13:32:42;8.82;;;5.35;;
47413;SDS011;33163;0.000;0.000;2023-02-13T13:35:13;5.38;;;4.60;;
47413;SDS011;33163;0.000;0.000;2023-02-13T13:37:41;6.97;;;5.00;;
47413;SDS011;33163;0.000;0.000;2023-02-13T13:40:27;6.50;;;4.50;;
47413;SDS011;33163;0.000;0.000;2023-02-13T13:43:06;8.20;;;5.00;;
47413;SDS011;33163;0.000;0.000;2023-02-13T13:45:39;6.20;;;4.88;;
47413;SDS011;33163;0.000;0.000;2023-02-13T13:48:29;6.85;;;5.05;;
47413;SDS011;33163;0.000;0.000;2023-02-13T13:51:21;6.65;;;4.78;;
47413;SDS011;33163;0.000;0.000;2023-02-13T13:54:16;6.20;;;4.70;;
47413;SDS011;33163;0.000;0.000;2023-02-13T13:57:04;6.85;;;5.20;;
47413;SDS011;33163;0.000;0.000;2023-02-13T13:59:55;6.28;;;4.75;;
47413;SDS011;33163;0.000;0.000;2023-02-13T14:02:26;7.15;;;4.32;;
47413;SDS011;33163;0.000;0.000;2023-02-13T14:05:14;10.90;;;5.18;;
47413;SDS011;33163;0.000;0.000;2023-02-13T14:07:46;7.90;;;4.68;;
47413;SDS011;33163;0.000;0.000;2023-02-13T14:13:27;9.20;;;4.68;;
47413;SDS011;33163;0.000;0.000;2023-02-13T14:15:57;5.63;;;4.30;;
47413;SDS011;33163;0.000;0.000;2023-02-13T14:18:27;10.88;;;4.63;;
47413;SDS011;33163;0.000;0.000;2023-02-13T14:21:04;12.80;;;4.55;;
47413;SDS011;33163;0.000;0.000;2023-02-13T14:23:44;5.03;;;4.20;;
47413;SDS011;33163;0.000;0.000;2023-02-13T14:29:28;6.35;;;4.72;;
47413;SDS011;33163;0.000;0.000;2023-02-13T14:31:59;8.30;;;4.73;;
47413;SDS011;33163;0.000;0.000;2023-02-13T14:34:32;5.82;;;4.53;;
47413;SDS011;33163;0.000;0.000;2023-02-13T14:40:26;7.00;;;4.25;;
47413;SDS011;33163;0.000;0.000;2023-02-13T14:45:56;5.85;;;4.10;;
47413;SDS011;33163;0.000;0.000;2023-02-13T14:48:34;10.18;;;4.65;;
47413;SDS011;33163;0.000;0.000;2023-02-13T14:51:04;8.32;;;3.42;;
47413;SDS011;33163;0.000;0.000;2023-02-13T14:53:42;6.88;;;4.13;;
47413;SDS011;33163;0.000;0.000;2023-02-13T14:56:17;6.10;;;4.68;;
47413;SDS011;33163;0.000;0.000;2023-02-13T14:58:47;6.35;;;3.67;;
47413;SDS011;33163;0.000;0.000;2023-02-13T15:01:20;6.30;;;4.00;;
47413;SDS011;33163;0.000;0.000;2023-02-13T15:03:56;5.88;;;3.95;;
47413;SDS011;33163;0.000;0.000;2023-02-13T15:06:29;7.05;;;4.22;;
47413;SDS011;33163;0.000;0.000;2023-02-13T15:08:59;7.63;;;4.70;;
47413;SDS011;33163;0.000;0.000;2023-02-13T15:11:33;7.53;;;4.30;;
47413;SDS011;33163;0.000;0.000;2023-02-13T15:14:18;5.22;;;4.15;;
47413;SDS011;33163;0.000;0.000;2023-02-13T15:16:48;7.03;;;4.03;;
47413;SDS011;33163;0.000;0.000;2023-02-13T15:19:21;6.95;;;4.70;;
47413;SDS011;33163;0.000;0.000;2023-02-13T15:21:50;8.07;;;4.25;;
47413;SDS011;33163;0.000;0.000;2023-02-13T15:24:20;6.75;;;3.83;;
47413;SDS011;33163;0.000;0.000;2023-02-13T15:26:49;7.25;;;3.70;;
47413;SDS011;33163;0.000;0.000;2023-02-13T15:29:22;6.93;;;4.53;;
47413;SDS011;33163;0.000;0.000;2023-02-13T15:31:49;7.13;;;3.63;;
47413;SDS011;33163;0.000;0.000;2023-02-13T15:34:18;5.43;;;3.75;;
47413;SDS011;33163;0.000;0.000;2023-02-13T15:36:49;5.45;;;3.92;;
47413;SDS011;33163;0.000;0.000;2023-02-13T15:39:17;6.00;;;4.10;;
47413;SDS011;33163;0.000;0.000;2023-02-13T15:41:48;5.88;;;4.50;;
47413;SDS011;33163;0.000;0.000;2023-02-13T15:44:18;5.22;;;3.88;;
47413;SDS011;33163;0.000;0.000;2023-02-13T15:46:49;11.23;;;4.07;;
47413;SDS011;33163;0.000;0.000;2023-02-13T15:49:17;6.20;;;4.05;;